createdAt,value
2022-10-12T00:01:53.416Z,100.00
2022-10-12T00:06:55.015Z,100.00
2022-10-12T00:11:56.621Z,100.00
2022-10-12T00:16:58.136Z,100.00
2022-10-12T00:21:59.643Z,100.00
2022-10-12T00:27:01.254Z,100.00
2022-10-12T00:32:02.902Z,100.00
2022-10-12T00:37:04.399Z,100.00
2022-10-12T00:42:06.027Z,100.00
2022-10-12T00:47:18.057Z,100.00
2022-10-12T00:52:22.982Z,100.00
2022-10-12T00:57:24.906Z,100.00
2022-10-12T01:02:28.123Z,100.00
2022-10-12T01:07:29.753Z,100.00
2022-10-12T01:12:32.237Z,100.00
2022-10-12T01:17:55.001Z,100.00
2022-10-12T01:23:18.275Z,100.00
2022-10-12T01:28:40.313Z,100.00
2022-10-12T01:33:48.491Z,100.00
2022-10-12T01:38:51.843Z,100.00
2022-10-12T01:43:53.452Z,100.00
2022-10-12T01:48:58.806Z,100.00
2022-10-12T01:54:36.623Z,100.00
2022-10-12T01:59:50.002Z,100.00
2022-10-12T02:05:22.731Z,100.00
2022-10-12T02:10:48.813Z,100.00
2022-10-12T02:15:53.115Z,100.00
2022-10-12T02:20:55.932Z,100.00
2022-10-12T02:25:58.834Z,100.00
2022-10-12T02:31:23.639Z,100.00
2022-10-12T02:36:39.762Z,100.00
2022-10-12T02:41:49.691Z,100.00
2022-10-12T02:46:54.351Z,100.00
2022-10-12T02:51:57.593Z,100.00
2022-10-12T02:56:59.094Z,100.00
2022-10-12T03:02:00.717Z,100.00
2022-10-12T03:07:02.391Z,100.00
2022-10-12T03:12:04.079Z,100.00
2022-10-12T03:17:05.568Z,100.00
2022-10-12T03:22:07.118Z,100.00
2022-10-12T03:27:08.696Z,100.00
2022-10-12T03:32:10.228Z,100.00
2022-10-12T03:37:11.748Z,100.00
2022-10-12T03:42:13.308Z,100.00
2022-10-12T03:47:14.913Z,100.00
2022-10-12T03:52:16.564Z,100.00
2022-10-12T03:57:18.116Z,100.00
2022-10-12T04:02:19.632Z,100.00
2022-10-12T04:07:21.411Z,100.00
2022-10-12T04:12:23.036Z,100.00
2022-10-12T04:17:24.575Z,100.00
2022-10-12T04:22:26.128Z,100.00
2022-10-12T04:27:27.799Z,100.00
2022-10-12T04:32:30.456Z,100.00
2022-10-12T04:37:32.091Z,100.00
2022-10-12T04:42:33.596Z,100.00
2022-10-12T04:47:35.460Z,100.00
2022-10-12T04:52:37.227Z,100.00
2022-10-12T04:57:39.034Z,100.00
2022-10-12T05:02:40.653Z,100.00
2022-10-12T05:07:42.129Z,100.00
2022-10-12T05:12:43.835Z,100.00
2022-10-12T05:17:45.397Z,100.00
2022-10-12T05:22:46.958Z,100.00
2022-10-12T05:27:48.421Z,100.00
2022-10-12T05:32:50.046Z,100.00
2022-10-12T05:37:51.618Z,100.00
2022-10-12T05:42:53.090Z,100.00
2022-10-12T05:47:54.554Z,100.00
2022-10-12T05:52:56.089Z,100.00
2022-10-12T05:57:57.613Z,100.00
2022-10-12T06:02:59.138Z,100.00
2022-10-12T06:08:00.753Z,100.00
2022-10-12T06:13:02.289Z,100.00
2022-10-12T06:18:03.941Z,100.00
2022-10-12T06:23:05.746Z,100.00
2022-10-12T06:28:07.290Z,100.00
2022-10-12T06:33:09.389Z,100.00
2022-10-12T06:38:10.963Z,100.00
2022-10-12T06:43:12.631Z,100.00
2022-10-12T06:48:18.350Z,100.00
2022-10-12T06:53:20.395Z,100.00
2022-10-12T06:58:21.900Z,100.00
2022-10-12T07:03:23.421Z,100.00
2022-10-12T07:08:24.927Z,100.00
2022-10-12T07:13:26.433Z,100.00
2022-10-12T07:18:28.162Z,100.00
2022-10-12T07:23:31.279Z,100.00
2022-10-12T07:28:37.024Z,100.00
2022-10-12T07:33:38.704Z,100.00
2022-10-12T07:38:40.206Z,100.00
2022-10-12T07:43:42.187Z,100.00
2022-10-12T07:48:49.746Z,100.00
2022-10-12T07:53:51.458Z,100.00
2022-10-12T07:58:55.602Z,100.00
2022-10-12T08:04:01.480Z,100.00
2022-10-12T08:09:03.869Z,100.00
2022-10-12T08:14:05.850Z,98.14
2022-10-12T08:19:07.373Z,100.00
2022-10-12T08:24:10.372Z,99.11
2022-10-12T08:29:11.905Z,100.00
2022-10-12T08:34:13.530Z,100.00
2022-10-12T08:39:17.467Z,100.00
2022-10-12T08:44:34.265Z,100.00
2022-10-12T08:49:36.465Z,95.19
2022-10-12T08:54:42.907Z,99.21
2022-10-12T08:59:45.345Z,100.00
2022-10-12T09:04:56.660Z,100.00
2022-10-12T09:10:14.026Z,97.50
2022-10-12T09:15:20.229Z,95.42
2022-10-12T09:20:32.659Z,98.14
2022-10-12T09:25:34.395Z,100.00
2022-10-12T09:30:41.917Z,96.32
2022-10-12T09:35:45.215Z,96.23
2022-10-12T09:40:47.187Z,96.59
2022-10-12T09:45:48.992Z,92.86
2022-10-12T09:51:03.044Z,95.83
2022-10-12T09:56:14.633Z,94.49
2022-10-12T10:01:21.252Z,88.36
2022-10-12T10:06:24.893Z,84.58
2022-10-12T10:11:28.937Z,83.25
2022-10-12T10:16:30.800Z,85.96
2022-10-12T10:21:37.981Z,91.63
2022-10-12T10:26:51.732Z,89.21
2022-10-12T10:32:24.648Z,84.77
2022-10-12T10:37:26.372Z,84.94
2022-10-12T10:42:31.172Z,79.70
2022-10-12T10:47:34.350Z,79.08
2022-10-12T10:52:37.177Z,78.59
2022-10-12T10:57:43.890Z,80.41
2022-10-12T11:02:52.002Z,76.92
2022-10-12T11:07:59.080Z,82.23
2022-10-12T11:13:07.149Z,76.72
2022-10-12T11:18:19.760Z,77.30
2022-10-12T11:23:35.171Z,78.22
2022-10-12T11:28:37.789Z,82.53
2022-10-12T11:33:42.098Z,81.30
2022-10-12T11:38:49.737Z,80.20
2022-10-12T11:44:06.079Z,77.43
2022-10-12T11:49:19.372Z,74.14
2022-10-12T11:54:39.531Z,72.98
2022-10-12T11:59:47.691Z,74.29
2022-10-12T12:04:50.615Z,73.92
2022-10-12T12:09:52.631Z,74.55
2022-10-12T12:14:54.389Z,73.73
2022-10-12T12:20:00.090Z,68.92
2022-10-12T12:25:07.525Z,65.31
2022-10-12T12:30:14.823Z,62.10
2022-10-12T12:35:50.413Z,65.21
2022-10-12T12:41:17.178Z,68.60
2022-10-12T12:46:19.957Z,75.11
2022-10-12T12:51:43.242Z,72.94
2022-10-12T12:57:05.773Z,75.47
2022-10-12T13:02:26.224Z,76.14
2022-10-12T13:08:01.651Z,77.52
2022-10-12T13:13:34.368Z,74.69
2022-10-12T13:18:49.196Z,72.40
2022-10-12T13:23:59.579Z,72.46
2022-10-12T13:29:06.268Z,77.27
2022-10-12T13:34:16.710Z,80.17
2022-10-12T13:39:20.660Z,77.91
2022-10-12T13:44:34.348Z,76.25
2022-10-12T13:49:42.372Z,74.59
2022-10-12T13:54:45.843Z,72.01
2022-10-12T13:59:53.507Z,75.15
2022-10-12T14:04:58.055Z,76.09
2022-10-12T14:10:06.609Z,74.71
2022-10-12T14:15:08.505Z,76.06
2022-10-12T14:20:32.146Z,75.49
2022-10-12T14:25:33.741Z,76.27
2022-10-12T14:30:37.512Z,79.61
2022-10-12T14:35:39.237Z,79.15
2022-10-12T14:40:40.793Z,76.26
2022-10-12T14:45:42.293Z,79.78
2022-10-12T14:50:45.235Z,78.20
2022-10-12T14:55:48.587Z,79.75
2022-10-12T15:00:52.731Z,81.52
2022-10-12T15:05:54.203Z,80.64
2022-10-12T15:10:55.672Z,80.78
2022-10-12T15:16:01.063Z,79.33
2022-10-12T15:21:02.681Z,81.13
2022-10-12T15:26:04.304Z,78.58
2022-10-12T15:31:17.609Z,78.37
2022-10-12T15:36:20.239Z,84.13
2022-10-12T15:41:26.017Z,83.95
2022-10-12T15:46:27.533Z,88.25
2022-10-12T15:51:29.456Z,89.07
2022-10-12T15:56:30.972Z,91.08
2022-10-12T16:01:34.312Z,91.03
2022-10-12T16:06:35.826Z,96.40
2022-10-12T16:11:37.401Z,95.23
2022-10-12T16:16:39.297Z,95.25
2022-10-12T16:21:41.020Z,95.36
2022-10-12T16:26:45.124Z,98.28
2022-10-12T16:31:46.849Z,100.00
2022-10-12T16:36:48.619Z,100.00
2022-10-12T16:41:50.125Z,100.00
2022-10-12T16:46:51.599Z,100.00
2022-10-12T16:51:53.113Z,100.00
2022-10-12T16:56:56.349Z,100.00
2022-10-12T17:01:57.853Z,100.00
2022-10-12T17:06:59.381Z,100.00
2022-10-12T17:12:01.065Z,100.00
2022-10-12T17:17:02.710Z,100.00
2022-10-12T17:22:04.833Z,100.00
2022-10-12T17:27:08.092Z,100.00
2022-10-12T17:32:11.125Z,100.00
2022-10-12T17:37:15.596Z,100.00
2022-10-12T17:42:17.510Z,100.00
2022-10-12T17:47:19.676Z,100.00
2022-10-12T17:52:21.416Z,100.00
2022-10-12T17:57:22.941Z,100.00
2022-10-12T18:02:24.616Z,100.00
2022-10-12T18:07:26.117Z,100.00
2022-10-12T18:12:27.630Z,100.00
2022-10-12T18:17:29.360Z,100.00
2022-10-12T18:22:31.119Z,100.00
2022-10-12T18:27:33.806Z,100.00
2022-10-12T18:32:35.694Z,100.00
2022-10-12T18:37:37.337Z,100.00
2022-10-12T18:42:38.856Z,100.00
2022-10-12T18:47:40.365Z,100.00
2022-10-12T18:52:41.915Z,100.00
2022-10-12T18:57:43.427Z,100.00
2022-10-12T19:02:44.948Z,100.00
2022-10-12T19:07:46.471Z,100.00
2022-10-12T19:12:48.045Z,100.00
2022-10-12T19:17:49.657Z,100.00
2022-10-12T19:22:51.190Z,100.00
2022-10-12T19:27:52.702Z,100.00
2022-10-12T19:32:54.292Z,100.00
2022-10-12T19:37:55.821Z,100.00
2022-10-12T19:42:57.311Z,100.00
2022-10-12T19:47:58.815Z,100.00
2022-10-12T19:53:00.405Z,100.00
2022-10-12T19:58:01.898Z,100.00
2022-10-12T20:03:04.336Z,100.00
2022-10-12T20:08:05.908Z,100.00
2022-10-12T20:13:07.404Z,100.00
2022-10-12T20:18:09.144Z,100.00
2022-10-12T20:23:10.626Z,100.00
2022-10-12T20:28:13.147Z,100.00
2022-10-12T20:33:15.183Z,100.00
2022-10-12T20:38:17.691Z,100.00
2022-10-12T20:43:19.188Z,100.00
2022-10-12T20:48:20.934Z,100.00
2022-10-12T20:53:22.561Z,100.00
2022-10-12T20:58:27.741Z,100.00
2022-10-12T21:03:29.644Z,100.00
2022-10-12T21:08:31.473Z,100.00
2022-10-12T21:13:36.243Z,100.00
2022-10-12T21:18:38.692Z,100.00
2022-10-12T21:23:41.962Z,100.00
2022-10-12T21:28:44.679Z,100.00
2022-10-12T21:33:47.058Z,100.00
2022-10-12T21:38:49.086Z,100.00
2022-10-12T21:43:51.536Z,100.00
2022-10-12T21:48:53.956Z,100.00
2022-10-12T21:53:55.567Z,100.00
2022-10-12T21:58:59.279Z,100.00
2022-10-12T22:04:03.086Z,100.00
2022-10-12T22:09:10.063Z,100.00
2022-10-12T22:14:15.567Z,100.00
2022-10-12T22:19:17.904Z,100.00
2022-10-12T22:24:19.944Z,100.00
2022-10-12T22:29:21.460Z,100.00
2022-10-12T22:34:22.914Z,100.00
2022-10-12T22:39:28.020Z,100.00
2022-10-12T22:44:29.508Z,100.00
2022-10-12T22:49:31.884Z,100.00
2022-10-12T22:54:33.438Z,100.00
2022-10-12T22:59:35.078Z,100.00
2022-10-12T23:04:36.569Z,100.00
2022-10-12T23:09:38.063Z,100.00
2022-10-12T23:14:39.557Z,100.00
2022-10-12T23:19:45.284Z,100.00
2022-10-12T23:24:46.835Z,100.00
2022-10-12T23:29:48.668Z,100.00
2022-10-12T23:34:50.175Z,100.00
2022-10-12T23:39:55.407Z,100.00
2022-10-12T23:44:56.884Z,100.00
2022-10-12T23:49:58.368Z,100.00
2022-10-12T23:54:59.864Z,100.00
